| time (UTC) | temp F | wind direction | speed knots | gust knots | rain 1hr in | rain 24hr in | rain mn in | humidity % | barometer mb |
| 20260906022209 | 74 | 70 | 0.0 | 0.0 | 0.00 | 0.00 | 0.00 | 93 | 1013.0 |
| 20260906021705 | 74 | 136 | 0.0 | 0.0 | 0.00 | 0.00 | 0.00 | 93 | 1012.9 |
| 20260906021204 | 74 | 321 | 0.0 | 0.9 | 0.00 | 0.00 | 0.00 | 92 | 1013.0 |
| 20260906020659 | 74 | 283 | 0.0 | 0.0 | 0.00 | 0.00 | 0.00 | 91 | 1012.5 |
| 20260906020154 | 74 | 77 | 0.0 | 0.0 | 0.00 | 0.00 | 0.00 | 91 | 1012.6 |
| 20260906015654 | 75 | 33 | 0.0 | 0.0 | 0.00 | 0.00 | 0.00 | 90 | 1012.5 |
| 20260906015153 | 75 | 68 | 0.0 | 0.0 | 0.00 | 0.00 | 0.00 | 90 | 1012.4 |
| 20260906014652 | 75 | 121 | 0.0 | 0.0 | 0.00 | 0.00 | 0.00 | 91 | 1012.5 |
| 20260906014149 | 75 | 89 | 0.0 | 0.0 | 0.00 | 0.00 | 0.00 | 91 | 1012.6 |
| 20260906013644 | 75 | 266 | 0.9 | 1.7 | 0.00 | 0.00 | 0.00 | 90 | 1012.7 |
| 20260906013139 | 75 | 105 | 0.0 | 0.0 | 0.00 | 0.00 | 0.00 | 90 | 1012.7 |
| 20260906012640 | 75 | 109 | 0.0 | 0.0 | 0.00 | 0.00 | 0.00 | 90 | 1012.4 |
| 20260906012139 | 75 | 241 | 0.0 | 0.0 | 0.00 | 0.00 | 0.00 | 90 | 1012.4 |
| 20260906011636 | 76 | 241 | 0.0 | 0.0 | 0.00 | 0.00 | 0.00 | 90 | 1012.0 |
| 20260906011130 | 76 | 242 | 0.0 | 0.0 | 0.00 | 0.00 | 0.00 | 90 | 1012.2 |
| 20260906010626 | 76 | 242 | 0.0 | 0.0 | 0.00 | 0.00 | 0.00 | 90 | 1012.0 |
| 20260906010122 | 76 | 241 | 0.0 | 0.0 | 0.00 | 0.00 | 0.00 | 90 | 1012.2 |
| 20260906005621 | 77 | 241 | 0.0 | 0.0 | 0.00 | 0.00 | 0.00 | 89 | 1011.7 |
| 20260906005121 | 77 | 242 | 0.0 | 0.0 | 0.00 | 0.00 | 0.00 | 89 | 1011.8 |
| 20260906004620 | 77 | 110 | 0.0 | 0.0 | 0.00 | 0.00 | 0.00 | 88 | 1012.1 |
| 20260906004115 | 78 | 169 | 0.0 | 0.0 | 0.00 | 0.00 | 0.00 | 89 | 1011.8 |
| 20260906003610 | 78 | 191 | 0.0 | 0.0 | 0.00 | 0.00 | 0.00 | 88 | 1012.1 |
| 20260906003107 | 78 | 173 | 0.0 | 0.0 | 0.00 | 0.00 | 0.00 | 87 | 1012.0 |
| 20260906002606 | 79 | 173 | 0.0 | 0.0 | 0.00 | 0.00 | 0.00 | 87 | 1012.0 |
| 20260906002101 | 79 | 191 | 0.0 | 0.0 | 0.00 | 0.00 | 0.00 | 86 | 1012.1 |
| 20260906001557 | 79 | 213 | 0.0 | 0.0 | 0.00 | 0.00 | 0.00 | 86 | 1012.1 |
| 20260906001057 | 80 | 181 | 0.0 | 0.0 | 0.00 | 0.00 | 0.00 | 85 | 1012.2 |
| 20260906000553 | 80 | 238 | 0.0 | 0.0 | 0.00 | 0.00 | 0.00 | 85 | 1012.3 |
| 20260906000048 | 81 | 178 | 0.0 | 0.0 | 0.00 | 0.00 | 0.00 | 84 | 1012.6 |
| 20260905235547 | 81 | 282 | 0.0 | 0.0 | 0.00 | 0.00 | 0.00 | 83 | 1012.5 |
| 20260905235042 | 82 | 218 | 0.0 | 0.0 | 0.00 | 0.00 | 0.00 | 82 | 1012.5 |
| 20260905234537 | 82 | 181 | 0.0 | 0.0 | 0.00 | 0.00 | 0.00 | 81 | 1012.5 |
| 20260905234033 | 83 | 191 | 0.0 | 0.0 | 0.00 | 0.00 | 0.00 | 81 | 1012.6 |
| 20260905233532 | 84 | 217 | 0.0 | 0.0 | 0.00 | 0.00 | 0.00 | 80 | 1012.6 |
| 20260905233032 | 84 | 257 | 0.0 | 0.0 | 0.00 | 0.00 | 0.00 | 79 | 1012.4 |
| 20260905232528 | 85 | 186 | 0.0 | 0.0 | 0.00 | 0.00 | 0.00 | 78 | 1012.7 |
| 20260905232024 | 85 | 220 | 0.0 | 0.0 | 0.00 | 0.00 | 0.00 | 76 | 1012.8 |
| 20260905231519 | 86 | 271 | 0.0 | 0.9 | 0.00 | 0.00 | 0.00 | 74 | 1012.7 |
| 20260905231015 | 87 | 158 | 0.0 | 0.0 | 0.00 | 0.00 | 0.00 | 72 | 1012.6 |
| 20260905230514 | 87 | 111 | 0.0 | 0.0 | 0.00 | 0.00 | 0.00 | 70 | 1012.5 |
| 20260905230012 | 88 | 322 | 0.0 | 0.0 | 0.00 | 0.00 | 0.00 | 71 | 1012.5 |
| 20260905225507 | 89 | 322 | 0.0 | 0.0 | 0.00 | 0.00 | 0.00 | 66 | 1012.4 |
| 20260905225002 | 90 | 322 | 0.0 | 0.0 | 0.00 | 0.00 | 0.00 | 66 | 1012.4 |
| 20260905224457 | 91 | 322 | 0.0 | 0.0 | 0.00 | 0.00 | 0.00 | 66 | 1012.4 |
| 20260905223956 | 92 | 123 | 0.0 | 0.0 | 0.00 | 0.00 | 0.00 | 57 | 1012.6 |
| 20260905223454 | 92 | 101 | 0.0 | 0.0 | 0.00 | 0.00 | 0.00 | 56 | 1012.5 |
| 20260905222950 | 92 | 62 | 0.0 | 0.9 | 0.00 | 0.00 | 0.00 | 54 | 1012.4 |
| 20260905222449 | 92 | 57 | 1.7 | 1.7 | 0.00 | 0.00 | 0.00 | 52 | 1012.5 |
| 20260905221945 | 92 | 31 | 1.7 | 2.6 | 0.00 | 0.00 | 0.00 | 52 | 1012.4 |
| 20260905221441 | 92 | 351 | 0.9 | 0.9 | 0.00 | 0.00 | 0.00 | 52 | 1012.4 |
| 20260905220937 | 93 | 331 | 1.7 | 3.5 | 0.00 | 0.00 | 0.00 | 52 | 1012.3 |
| 20260905220433 | 93 | 282 | 1.7 | 2.6 | 0.00 | 0.00 | 0.00 | 52 | 1012.6 |
| 20260905215932 | 94 | 60 | 1.7 | 2.6 | 0.00 | 0.00 | 0.00 | 50 | 1012.5 |
| 20260905215428 | 94 | 291 | 1.7 | 1.7 | 0.00 | 0.00 | 0.00 | 52 | 1012.4 |
| 20260905214924 | 94 | 1 | 1.7 | 5.2 | 0.00 | 0.00 | 0.00 | 49 | 1012.3 |
| 20260905214420 | 94 | 257 | 0.9 | 2.6 | 0.00 | 0.00 | 0.00 | 50 | 1012.4 |
| 20260905213920 | 94 | 285 | 1.7 | 2.6 | 0.00 | 0.00 | 0.00 | 50 | 1012.0 |
| 20260905213416 | 94 | 235 | 2.6 | 2.6 | 0.00 | 0.00 | 0.00 | 49 | 1012.1 |
| 20260905212911 | 94 | 303 | 1.7 | 3.5 | 0.00 | 0.00 | 0.00 | 49 | 1012.4 |
| 20260905212406 | 94 | 316 | 1.7 | 2.6 | 0.00 | 0.00 | 0.00 | 51 | 1012.3 |
| 20260905211905 | 94 | 307 | 0.9 | 0.9 | 0.00 | 0.00 | 0.00 | 51 | 1012.4 |
| 20260905211401 | 94 | 251 | 1.7 | 2.6 | 0.00 | 0.00 | 0.00 | 48 | 1012.2 |
| 20260905210857 | 94 | 349 | 0.9 | 2.6 | 0.00 | 0.00 | 0.00 | 47 | 1012.6 |
| 20260905210357 | 94 | 307 | 3.5 | 3.5 | 0.00 | 0.00 | 0.00 | 48 | 1012.3 |
| 20260905205856 | 94 | 235 | 4.3 | 6.1 | 0.00 | 0.00 | 0.00 | 48 | 1012.4 |
| 20260905205351 | 95 | 271 | 2.6 | 3.5 | 0.00 | 0.00 | 0.00 | 47 | 1012.5 |
| 20260905204850 | 94 | 320 | 3.5 | 3.5 | 0.00 | 0.00 | 0.00 | 47 | 1012.4 |
| 20260905204346 | 93 | 359 | 0.9 | 3.5 | 0.00 | 0.00 | 0.00 | 49 | 1012.4 |
| 20260905203845 | 93 | 306 | 2.6 | 5.2 | 0.00 | 0.00 | 0.00 | 50 | 1012.5 |
| 20260905203341 | 94 | 314 | 4.3 | 6.1 | 0.00 | 0.00 | 0.00 | 48 | 1012.4 |
| 20260905202836 | 94 | 105 | 1.7 | 1.7 | 0.00 | 0.00 | 0.00 | 47 | 1012.6 |
| 20260905202331 | 94 | 172 | 1.7 | 2.6 | 0.00 | 0.00 | 0.00 | 48 | 1012.9 |
| 20260905201827 | 94 | 272 | 1.7 | 5.2 | 0.00 | 0.00 | 0.00 | 47 | 1012.8 |
| 20260905201322 | 95 | 285 | 1.7 | 5.2 | 0.00 | 0.00 | 0.00 | 47 | 1012.8 |
| 20260905200822 | 95 | 281 | 0.9 | 1.7 | 0.00 | 0.00 | 0.00 | 46 | 1012.6 |
| 20260905200318 | 95 | 211 | 3.5 | 3.5 | 0.00 | 0.00 | 0.00 | 46 | 1013.0 |
| 20260905195816 | 94 | 269 | 1.7 | 1.7 | 0.00 | 0.00 | 0.00 | 47 | 1013.1 |
| 20260905195311 | 95 | 301 | 1.7 | 3.5 | 0.00 | 0.00 | 0.00 | 46 | 1013.0 |
| 20260905194807 | 94 | 126 | 0.0 | 1.7 | 0.00 | 0.00 | 0.00 | 46 | 1012.9 |
| 20260905194307 | 94 | 193 | 2.6 | 5.2 | 0.00 | 0.00 | 0.00 | 46 | 1013.2 |
| 20260905193806 | 94 | 208 | 0.9 | 1.7 | 0.00 | 0.00 | 0.00 | 50 | 1013.2 |
| 20260905193301 | 94 | 229 | 1.7 | 3.5 | 0.00 | 0.00 | 0.00 | 46 | 1013.4 |
| 20260905192756 | 94 | 252 | 1.7 | 3.5 | 0.00 | 0.00 | 0.00 | 50 | 1013.4 |
| 20260905192253 | 95 | 293 | 2.6 | 2.6 | 0.00 | 0.00 | 0.00 | 49 | 1013.4 |
| 20260905191751 | 94 | 204 | 0.9 | 1.7 | 0.00 | 0.00 | 0.00 | 49 | 1013.4 |
| 20260905191250 | 93 | 279 | 0.9 | 2.6 | 0.00 | 0.00 | 0.00 | 51 | 1013.5 |
| 20260905190749 | 94 | 230 | 1.7 | 3.5 | 0.00 | 0.00 | 0.00 | 46 | 1013.6 |
| 20260905190249 | 94 | 199 | 2.6 | 3.5 | 0.00 | 0.00 | 0.00 | 45 | 1013.8 |
| 20260905185748 | 94 | 274 | 1.7 | 2.6 | 0.00 | 0.00 | 0.00 | 50 | 1013.5 |
| 20260905185243 | 95 | 190 | 0.9 | 0.9 | 0.00 | 0.00 | 0.00 | 45 | 1013.7 |
| 20260905184742 | 94 | 173 | 0.0 | 0.9 | 0.00 | 0.00 | 0.00 | 49 | 1013.8 |
| 20260905184241 | 93 | 245 | 0.0 | 0.9 | 0.00 | 0.00 | 0.00 | 52 | 1013.8 |
| 20260905183741 | 93 | 225 | 1.7 | 2.6 | 0.00 | 0.00 | 0.00 | 45 | 1014.1 |
| 20260905183237 | 93 | 85 | 2.6 | 2.6 | 0.00 | 0.00 | 0.00 | 48 | 1013.9 |
| 20260905182730 | 93 | 68 | 0.9 | 1.7 | 0.00 | 0.00 | 0.00 | 48 | 1014.1 |
| 20260905182230 | 92 | 168 | 0.9 | 1.7 | 0.00 | 0.00 | 0.00 | 46 | 1014.1 |
| 20260905181726 | 92 | 101 | 1.7 | 1.7 | 0.00 | 0.00 | 0.00 | 45 | 1014.4 |
| 20260905181224 | 92 | 163 | 0.9 | 1.7 | 0.00 | 0.00 | 0.00 | 51 | 1014.4 |
| 20260905180719 | 91 | 161 | 2.6 | 2.6 | 0.00 | 0.00 | 0.00 | 50 | 1014.3 |
| 20260905180215 | 91 | 191 | 2.6 | 6.1 | 0.00 | 0.00 | 0.00 | 51 | 1014.4 |
| 20260905175715 | 90 | 234 | 2.6 | 3.5 | 0.00 | 0.00 | 0.00 | 49 | 1014.3 |
| 20260905175209 | 90 | 197 | 2.6 | 3.5 | 0.00 | 0.00 | 0.00 | 50 | 1014.3 |
| 20260905174705 | 91 | 189 | 3.5 | 3.5 | 0.00 | 0.00 | 0.00 | 50 | 1014.6 |
| 20260905174200 | 92 | 195 | 2.6 | 2.6 | 0.00 | 0.00 | 0.00 | 49 | 1014.7 |
| 20260905173656 | 91 | 194 | 0.0 | 2.6 | 0.00 | 0.00 | 0.00 | 51 | 1014.7 |
| 20260905173151 | 91 | 106 | 0.9 | 2.6 | 0.00 | 0.00 | 0.00 | 48 | 1014.7 |
| 20260905172651 | 90 | 238 | 0.9 | 3.5 | 0.00 | 0.00 | 0.00 | 51 | 1014.7 |
| 20260905172145 | 90 | 48 | 0.9 | 0.9 | 0.00 | 0.00 | 0.00 | 52 | 1014.9 |
| 20260905171641 | 89 | 208 | 3.5 | 3.5 | 0.00 | 0.00 | 0.00 | 51 | 1015.0 |
| 20260905171137 | 89 | 94 | 0.9 | 3.5 | 0.00 | 0.00 | 0.00 | 55 | 1014.9 |
| 20260905170634 | 89 | 185 | 2.6 | 5.2 | 0.00 | 0.00 | 0.00 | 53 | 1015.0 |
| 20260905170129 | 89 | 182 | 2.6 | 2.6 | 0.00 | 0.00 | 0.00 | 54 | 1015.1 |
| 20260905165628 | 89 | 79 | 0.9 | 0.9 | 0.00 | 0.00 | 0.00 | 51 | 1015.0 |
| 20260905165124 | 89 | 147 | 2.6 | 3.5 | 0.00 | 0.00 | 0.00 | 54 | 1015.1 |
| 20260905164619 | 88 | 199 | 0.9 | 1.7 | 0.00 | 0.00 | 0.00 | 57 | 1015.3 |
| 20260905164118 | 89 | 182 | 2.6 | 3.5 | 0.00 | 0.00 | 0.00 | 52 | 1015.2 |
| 20260905163615 | 88 | 119 | 0.9 | 0.9 | 0.00 | 0.00 | 0.00 | 54 | 1015.3 |
| 20260905163111 | 88 | 206 | 1.7 | 2.6 | 0.00 | 0.00 | 0.00 | 55 | 1015.4 |
| 20260905162607 | 88 | 80 | 1.7 | 3.5 | 0.00 | 0.00 | 0.00 | 55 | 1015.1 |
| 20260905162106 | 88 | 106 | 0.9 | 1.7 | 0.00 | 0.00 | 0.00 | 57 | 1015.3 |
| 20260905161606 | 87 | 164 | 1.7 | 3.5 | 0.00 | 0.00 | 0.00 | 56 | 1015.2 |
| 20260905161104 | 87 | 156 | 0.0 | 0.9 | 0.00 | 0.00 | 0.00 | 58 | 1014.9 |
| 20260905160602 | 87 | 180 | 1.7 | 1.7 | 0.00 | 0.00 | 0.00 | 58 | 1015.3 |
| 20260905155557 | 86 | 93 | 0.9 | 3.5 | 0.00 | 0.00 | 0.00 | 58 | 1015.4 |
| 20260905155056 | 86 | 178 | 4.3 | 5.2 | 0.00 | 0.00 | 0.00 | 59 | 1015.5 |
| 20260905154551 | 86 | 168 | 0.9 | 2.6 | 0.00 | 0.00 | 0.00 | 60 | 1015.5 |
| 20260905154046 | 85 | 93 | 0.0 | 3.5 | 0.00 | 0.00 | 0.00 | 62 | 1015.6 |
| 20260905153542 | 86 | 176 | 4.3 | 6.1 | 0.00 | 0.00 | 0.00 | 60 | 1015.8 |
| 20260905153042 | 85 | 224 | 1.7 | 2.6 | 0.00 | 0.00 | 0.00 | 60 | 1015.8 |
| 20260905152537 | 86 | 89 | 0.9 | 5.2 | 0.00 | 0.00 | 0.00 | 58 | 1015.8 |
| 20260905152032 | 85 | 201 | 1.7 | 3.5 | 0.00 | 0.00 | 0.00 | 60 | 1015.8 |
| 20260905151527 | 84 | 246 | 1.7 | 2.6 | 0.00 | 0.00 | 0.00 | 61 | 1016.2 |
| 20260905151022 | 84 | 157 | 4.3 | 7.0 | 0.00 | 0.00 | 0.00 | 60 | 1016.1 |
| 20260905150518 | 84 | 98 | 3.5 | 3.5 | 0.00 | 0.00 | 0.00 | 63 | 1016.1 |
| 20260905150015 | 84 | 69 | 0.9 | 3.5 | 0.00 | 0.00 | 0.00 | 63 | 1015.8 |
| 20260905145509 | 83 | 77 | 2.6 | 5.2 | 0.00 | 0.00 | 0.00 | 61 | 1015.9 |
| 20260905145008 | 84 | 146 | 0.9 | 2.6 | 0.00 | 0.00 | 0.00 | 59 | 1016.2 |
| 20260905144504 | 83 | 230 | 0.9 | 0.9 | 0.00 | 0.00 | 0.00 | 62 | 1016.1 |
| 20260905144003 | 82 | 80 | 3.5 | 3.5 | 0.00 | 0.00 | 0.00 | 64 | 1015.8 |
| 20260905143501 | 81 | 87 | 1.7 | 1.7 | 0.00 | 0.00 | 0.00 | 66 | 1015.9 |
| 20260905142956 | 79 | 94 | 1.7 | 1.7 | 0.00 | 0.00 | 0.00 | 70 | 1016.0 |
| 20260905142455 | 80 | 78 | 0.9 | 3.5 | 0.00 | 0.00 | 0.00 | 69 | 1016.2 |
| 20260905141951 | 80 | 92 | 1.7 | 2.6 | 0.00 | 0.00 | 0.00 | 69 | 1016.4 |
| 20260905141445 | 80 | 343 | 0.0 | 3.5 | 0.00 | 0.00 | 0.00 | 71 | 1016.3 |
| 20260905140942 | 80 | 104 | 2.6 | 5.2 | 0.00 | 0.00 | 0.00 | 72 | 1016.2 |
| 20260905140437 | 78 | 74 | 2.6 | 5.2 | 0.00 | 0.00 | 0.00 | 74 | 1016.1 |
| 20260905135936 | 78 | 60 | 1.7 | 6.1 | 0.00 | 0.00 | 0.00 | 74 | 1016.2 |
| 20260905135432 | 78 | 102 | 1.7 | 3.5 | 0.00 | 0.00 | 0.00 | 77 | 1016.4 |
| 20260905134927 | 77 | 36 | 1.7 | 3.5 | 0.00 | 0.00 | 0.00 | 78 | 1016.2 |
| 20260905134426 | 76 | 79 | 3.5 | 6.1 | 0.00 | 0.00 | 0.00 | 79 | 1016.4 |
| 20260905133920 | 75 | 91 | 0.9 | 2.6 | 0.00 | 0.00 | 0.00 | 82 | 1016.2 |
| 20260905133420 | 74 | 134 | 0.9 | 3.5 | 0.00 | 0.00 | 0.00 | 83 | 1016.4 |
| 20260905132920 | 73 | 61 | 3.5 | 5.2 | 0.00 | 0.00 | 0.00 | 83 | 1016.5 |
| 20260905132415 | 73 | 53 | 1.7 | 3.5 | 0.00 | 0.00 | 0.00 | 85 | 1016.6 |
| 20260905131910 | 73 | 84 | 3.5 | 3.5 | 0.00 | 0.00 | 0.00 | 85 | 1016.7 |
| 20260905131407 | 73 | 83 | 1.7 | 7.8 | 0.00 | 0.00 | 0.00 | 85 | 1016.7 |
| 20260905130906 | 73 | 254 | 0.9 | 6.1 | 0.00 | 0.00 | 0.00 | 83 | 1016.7 |
| 20260905130406 | 73 | 68 | 1.7 | 6.1 | 0.00 | 0.00 | 0.00 | 81 | 1016.8 |
| 20260905125901 | 74 | 41 | 4.3 | 7.0 | 0.00 | 0.00 | 0.00 | 80 | 1016.8 |
| 20260905125355 | 74 | 271 | 3.5 | 6.1 | 0.00 | 0.00 | 0.00 | 79 | 1017.1 |
| 20260905124851 | 74 | 62 | 6.1 | 7.0 | 0.00 | 0.00 | 0.00 | 78 | 1016.9 |
| 20260905124348 | 74 | 329 | 2.6 | 9.6 | 0.00 | 0.00 | 0.00 | 76 | 1016.5 |
| 20260905123847 | 74 | 19 | 3.5 | 8.7 | 0.00 | 0.00 | 0.00 | 77 | 1016.6 |
| 20260905123344 | 74 | 29 | 1.7 | 3.5 | 0.00 | 0.00 | 0.00 | 79 | 1016.5 |
| 20260905122844 | 74 | 328 | 0.9 | 1.7 | 0.00 | 0.00 | 0.00 | 79 | 1015.8 |
| 20260905122343 | 74 | 31 | 2.6 | 3.5 | 0.00 | 0.00 | 0.00 | 79 | 1015.9 |
| 20260905121839 | 74 | 105 | 1.7 | 2.6 | 0.00 | 0.00 | 0.00 | 80 | 1015.8 |
| 20260905121335 | 74 | 156 | 0.0 | 0.9 | 0.00 | 0.00 | 0.00 | 80 | 1016.0 |
| 20260905120834 | 74 | 10 | 2.6 | 3.5 | 0.00 | 0.00 | 0.00 | 80 | 1016.0 |
| 20260905120329 | 74 | 69 | 0.9 | 2.6 | 0.00 | 0.00 | 0.00 | 81 | 1015.9 |
| 20260905115824 | 74 | 84 | 3.5 | 5.2 | 0.00 | 0.00 | 0.00 | 82 | 1016.0 |
| 20260905115323 | 73 | 41 | 1.7 | 2.6 | 0.00 | 0.00 | 0.00 | 83 | 1015.9 |
| 20260905114823 | 73 | 58 | 0.9 | 2.6 | 0.00 | 0.00 | 0.00 | 83 | 1015.8 |
| 20260905114322 | 74 | 1 | 1.7 | 6.1 | 0.00 | 0.00 | 0.00 | 83 | 1016.0 |
| 20260905113822 | 74 | 18 | 2.6 | 6.1 | 0.00 | 0.00 | 0.00 | 82 | 1015.7 |
| 20260905113318 | 74 | 45 | 3.5 | 7.0 | 0.00 | 0.00 | 0.00 | 82 | 1015.8 |
| 20260905112813 | 75 | 329 | 2.6 | 7.0 | 0.00 | 0.00 | 0.00 | 81 | 1015.3 |
| 20260905112307 | 75 | 68 | 3.5 | 5.2 | 0.00 | 0.00 | 0.00 | 80 | 1015.2 |
| 20260905111803 | 76 | 32 | 1.7 | 3.5 | 0.00 | 0.00 | 0.00 | 79 | 1015.3 |
| 20260905111257 | 76 | 349 | 2.6 | 6.1 | 0.00 | 0.00 | 0.00 | 79 | 1015.5 |
| 20260905110756 | 76 | 263 | 3.5 | 7.8 | 0.00 | 0.00 | 0.00 | 84 | 1015.4 |
| 20260905110250 | 74 | 144 | 2.6 | 13.9 | 0.00 | 0.00 | 0.00 | 92 | 1015.3 |
| 20260905105746 | 74 | 16 | 0.0 | 0.0 | 0.00 | 0.00 | 0.00 | 94 | 1014.4 |
| 20260905105245 | 74 | 135 | 0.0 | 0.0 | 0.00 | 0.00 | 0.00 | 94 | 1014.9 |
| 20260905104739 | 74 | 274 | 0.0 | 0.0 | 0.00 | 0.00 | 0.00 | 94 | 1014.8 |
| 20260905104236 | 74 | 126 | 0.0 | 0.0 | 0.00 | 0.00 | 0.00 | 94 | 1014.3 |
| 20260905103730 | 74 | 248 | 0.0 | 0.0 | 0.00 | 0.00 | 0.00 | 95 | 1014.3 |
| 20260905103226 | 74 | 69 | 0.0 | 0.0 | 0.00 | 0.00 | 0.00 | 95 | 1014.6 |
| 20260905102721 | 74 | 343 | 0.9 | 2.6 | 0.00 | 0.00 | 0.00 | 97 | 1014.6 |
| 20260905102218 | 74 | 43 | 0.9 | 2.6 | 0.00 | 0.00 | 0.00 | 98 | 1014.7 |
| 20260905101717 | 72 | 354 | 3.5 | 2.6 | 0.00 | 0.00 | 0.00 | 97 | 1014.8 |
| 20260905101215 | 72 | 43 | 0.0 | 0.0 | 0.00 | 0.00 | 0.00 | 97 | 1014.3 |
| 20260905100711 | 72 | 110 | 0.0 | 0.0 | 0.00 | 0.00 | 0.00 | 97 | 1014.1 |
| 20260905100206 | 72 | 168 | 0.0 | 0.0 | 0.00 | 0.00 | 0.00 | 97 | 1014.3 |
| 20260905095706 | 72 | 194 | 0.0 | 0.9 | 0.00 | 0.00 | 0.00 | 97 | 1014.1 |
| 20260905095201 | 72 | 156 | 0.0 | 0.0 | 0.00 | 0.00 | 0.00 | 97 | 1014.2 |
| 20260905094701 | 72 | 107 | 0.0 | 0.0 | 0.00 | 0.00 | 0.00 | 97 | 1014.0 |
| 20260905094201 | 72 | 200 | 0.0 | 0.0 | 0.00 | 0.00 | 0.00 | 97 | 1014.1 |
| 20260905093655 | 72 | 170 | 0.0 | 0.0 | 0.00 | 0.00 | 0.00 | 97 | 1013.9 |
| 20260905093151 | 72 | 168 | 0.0 | 0.0 | 0.00 | 0.00 | 0.00 | 97 | 1014.0 |
| 20260905092646 | 72 | 168 | 0.0 | 0.0 | 0.00 | 0.00 | 0.00 | 97 | 1014.0 |
| 20260905092142 | 72 | 168 | 0.0 | 0.0 | 0.00 | 0.00 | 0.00 | 97 | 1013.9 |
| 20260905091641 | 72 | 169 | 0.0 | 0.0 | 0.00 | 0.00 | 0.00 | 97 | 1013.8 |
| 20260905091141 | 72 | 171 | 0.0 | 0.0 | 0.00 | 0.00 | 0.00 | 97 | 1013.9 |
| 20260905090636 | 72 | 168 | 0.0 | 0.0 | 0.00 | 0.00 | 0.00 | 97 | 1013.8 |
| 20260905090132 | 72 | 136 | 0.0 | 0.0 | 0.00 | 0.00 | 0.00 | 97 | 1013.8 |
| 20260905085630 | 72 | 157 | 0.0 | 0.0 | 0.00 | 0.00 | 0.00 | 97 | 1013.8 |
| 20260905085126 | 72 | 122 | 0.0 | 0.0 | 0.00 | 0.00 | 0.00 | 97 | 1013.7 |
| 20260905084625 | 72 | 112 | 0.0 | 0.0 | 0.00 | 0.00 | 0.00 | 97 | 1013.8 |
| 20260905084121 | 72 | 110 | 0.0 | 0.0 | 0.00 | 0.00 | 0.00 | 97 | 1013.8 |
| 20260905083620 | 72 | 111 | 0.0 | 0.0 | 0.00 | 0.00 | 0.00 | 97 | 1013.8 |
| 20260905083117 | 72 | 160 | 0.0 | 0.0 | 0.00 | 0.00 | 0.00 | 97 | 1013.9 |
| 20260905082612 | 71 | 160 | 0.0 | 0.0 | 0.00 | 0.00 | 0.00 | 97 | 1014.0 |
| 20260905082108 | 71 | 160 | 0.0 | 0.0 | 0.00 | 0.00 | 0.00 | 97 | 1013.8 |
| 20260905081608 | 71 | 160 | 0.0 | 0.0 | 0.00 | 0.00 | 0.00 | 97 | 1013.8 |
| 20260905081102 | 72 | 159 | 0.0 | 0.0 | 0.00 | 0.00 | 0.00 | 97 | 1013.9 |
| 20260905080602 | 72 | 189 | 0.0 | 0.0 | 0.00 | 0.00 | 0.00 | 97 | 1013.9 |
| 20260905080052 | 72 | 140 | 0.0 | 0.0 | 0.00 | 0.00 | 0.00 | 97 | 1013.8 |
| 20260905075551 | 72 | 140 | 0.0 | 0.0 | 0.00 | 0.00 | 0.00 | 97 | 1013.9 |
| 20260905075050 | 72 | 113 | 0.0 | 0.0 | 0.00 | 0.00 | 0.00 | 97 | 1013.8 |
| 20260905074550 | 72 | 113 | 0.0 | 0.0 | 0.00 | 0.00 | 0.00 | 97 | 1014.0 |
| 20260905074046 | 72 | 90 | 0.0 | 0.0 | 0.00 | 0.00 | 0.00 | 97 | 1013.9 |
| 20260905073541 | 72 | 90 | 0.0 | 0.0 | 0.00 | 0.00 | 0.00 | 97 | 1014.0 |
| 20260905073037 | 73 | 118 | 0.0 | 0.0 | 0.00 | 0.00 | 0.00 | 97 | 1014.0 |
| 20260905072536 | 72 | 89 | 0.9 | 0.9 | 0.00 | 0.00 | 0.00 | 97 | 1014.2 |
| 20260905072032 | 72 | 74 | 0.9 | 0.0 | 0.00 | 0.00 | 0.00 | 97 | 1014.2 |
| 20260905071528 | 72 | 137 | 0.0 | 0.0 | 0.00 | 0.00 | 0.00 | 97 | 1014.2 |
| 20260905071028 | 72 | 138 | 0.0 | 0.0 | 0.00 | 0.00 | 0.00 | 97 | 1014.6 |
| 20260905070523 | 72 | 138 | 0.0 | 0.0 | 0.00 | 0.00 | 0.00 | 97 | 1014.2 |
| 20260905070019 | 73 | 103 | 0.0 | 0.0 | 0.00 | 0.00 | 0.00 | 97 | 1014.4 |
| 20260905065517 | 73 | 103 | 0.0 | 0.0 | 0.00 | 0.00 | 0.00 | 97 | 1014.4 |
| 20260905065012 | 72 | 179 | 0.0 | 0.0 | 0.00 | 0.00 | 0.00 | 97 | 1014.3 |
| 20260905064507 | 73 | 143 | 0.0 | 0.0 | 0.00 | 0.00 | 0.00 | 97 | 1014.6 |
| 20260905064002 | 73 | 106 | 0.0 | 0.0 | 0.00 | 0.00 | 0.00 | 97 | 1014.7 |
| 20260905063456 | 73 | 101 | 0.0 | 0.0 | 0.00 | 0.00 | 0.00 | 97 | 1014.9 |
| 20260905062953 | 73 | 84 | 0.0 | 0.0 | 0.00 | 0.00 | 0.00 | 97 | 1014.8 |
| 20260905062452 | 73 | 102 | 0.0 | 0.0 | 0.00 | 0.00 | 0.00 | 97 | 1014.9 |
| 20260905061947 | 73 | 84 | 0.0 | 0.0 | 0.00 | 0.00 | 0.00 | 96 | 1014.9 |
| 20260905061442 | 73 | 178 | 0.0 | 0.0 | 0.00 | 0.00 | 0.00 | 96 | 1014.9 |
| 20260905060941 | 73 | 227 | 0.0 | 0.0 | 0.00 | 0.00 | 0.00 | 96 | 1015.1 |
| 20260905060437 | 73 | 84 | 0.0 | 0.0 | 0.00 | 0.00 | 0.00 | 96 | 1015.0 |
| 20260905055932 | 73 | 97 | 0.0 | 0.0 | 0.00 | 0.00 | 0.00 | 96 | 1015.1 |
| 20260905055432 | 73 | 109 | 0.0 | 0.9 | 0.00 | 0.00 | 0.00 | 96 | 1015.3 |
| 20260905054931 | 73 | 85 | 0.0 | 0.0 | 0.00 | 0.00 | 0.00 | 96 | 1015.0 |
| 20260905054427 | 73 | 116 | 0.0 | 0.0 | 0.00 | 0.00 | 0.00 | 96 | 1014.9 |
| 20260905053927 | 73 | 345 | 0.0 | 0.0 | 0.00 | 0.00 | 0.00 | 96 | 1015.0 |
| 20260905053422 | 73 | 345 | 0.0 | 0.0 | 0.00 | 0.00 | 0.00 | 96 | 1015.3 |
| 20260905052917 | 73 | 325 | 0.0 | 0.9 | 0.00 | 0.00 | 0.00 | 96 | 1015.2 |
| 20260905052417 | 73 | 143 | 0.0 | 0.0 | 0.00 | 0.00 | 0.00 | 96 | 1015.3 |
| 20260905051916 | 73 | 89 | 0.0 | 0.0 | 0.00 | 0.00 | 0.00 | 96 | 1015.3 |
| 20260905051412 | 73 | 99 | 0.0 | 0.0 | 0.00 | 0.00 | 0.00 | 95 | 1015.3 |
| 20260905050909 | 73 | 184 | 0.0 | 0.0 | 0.00 | 0.00 | 0.00 | 95 | 1015.4 |
| 20260905050405 | 73 | 184 | 0.0 | 0.0 | 0.00 | 0.00 | 0.00 | 95 | 1015.3 |
| 20260905045900 | 73 | 144 | 0.0 | 0.0 | 0.00 | 0.00 | 0.00 | 95 | 1015.5 |
| 20260905045355 | 73 | 124 | 0.0 | 0.0 | 0.00 | 0.00 | 0.00 | 95 | 1015.5 |
| 20260905044851 | 73 | 123 | 0.0 | 0.0 | 0.00 | 0.00 | 0.00 | 95 | 1015.5 |
| 20260905044346 | 74 | 88 | 0.0 | 0.0 | 0.00 | 0.00 | 0.00 | 95 | 1015.4 |
| 20260905043844 | 74 | 89 | 0.0 | 0.0 | 0.00 | 0.00 | 0.00 | 95 | 1015.4 |
| 20260905043339 | 74 | 90 | 0.0 | 0.0 | 0.00 | 0.00 | 0.00 | 95 | 1015.3 |
| 20260905042834 | 74 | 78 | 0.0 | 0.0 | 0.00 | 0.00 | 0.00 | 95 | 1015.4 |
| 20260905042334 | 74 | 163 | 0.0 | 0.0 | 0.00 | 0.00 | 0.00 | 95 | 1015.3 |
| 20260905041829 | 74 | 175 | 0.0 | 0.0 | 0.00 | 0.00 | 0.00 | 95 | 1015.3 |
| 20260905041326 | 74 | 245 | 0.9 | 0.9 | 0.00 | 0.00 | 0.00 | 95 | 1015.3 |
| 20260905040826 | 74 | 174 | 0.0 | 0.9 | 0.00 | 0.00 | 0.00 | 95 | 1015.4 |
| 20260905040324 | 74 | 106 | 0.0 | 0.0 | 0.00 | 0.00 | 0.00 | 95 | 1015.5 |
| 20260905035824 | 74 | 323 | 0.0 | 0.0 | 0.00 | 0.00 | 0.00 | 95 | 1015.3 |
| 20260905035320 | 74 | 323 | 0.0 | 0.0 | 0.00 | 0.00 | 0.00 | 95 | 1015.4 |
| 20260905034817 | 74 | 323 | 0.0 | 0.0 | 0.00 | 0.00 | 0.00 | 95 | 1015.3 |
| 20260905034312 | 74 | 323 | 0.0 | 0.0 | 0.00 | 0.00 | 0.00 | 95 | 1015.2 |
| 20260905033810 | 74 | 323 | 0.0 | 0.0 | 0.00 | 0.00 | 0.00 | 95 | 1015.5 |
| 20260905033306 | 74 | 323 | 0.0 | 0.0 | 0.00 | 0.00 | 0.00 | 95 | 1015.3 |
| 20260905032805 | 74 | 323 | 0.0 | 0.0 | 0.00 | 0.00 | 0.00 | 95 | 1015.4 |
| 20260905032301 | 74 | 323 | 0.0 | 0.0 | 0.00 | 0.00 | 0.00 | 95 | 1015.5 |
| 20260905031755 | 74 | 323 | 0.0 | 0.0 | 0.00 | 0.00 | 0.00 | 94 | 1015.4 |
| 20260905031247 | 74 | 323 | 0.0 | 0.0 | 0.00 | 0.00 | 0.00 | 94 | 1015.2 |
| 20260905030746 | 74 | 323 | 0.0 | 0.0 | 0.00 | 0.00 | 0.00 | 94 | 1015.5 |
| 20260905030242 | 74 | 323 | 0.0 | 0.0 | 0.00 | 0.00 | 0.00 | 94 | 1015.3 |
| 20260905025736 | 74 | 323 | 0.0 | 0.0 | 0.00 | 0.00 | 0.00 | 94 | 1015.4 |
| 20260905025232 | 74 | 323 | 0.9 | 0.9 | 0.00 | 0.00 | 0.00 | 94 | 1015.4 |
| 20260905024727 | 75 | 323 | 0.0 | 0.0 | 0.00 | 0.00 | 0.00 | 94 | 1015.3 |
| 20260905024224 | 75 | 323 | 0.0 | 0.0 | 0.00 | 0.00 | 0.00 | 94 | 1015.2 |
| 20260905023723 | 75 | 323 | 0.0 | 0.0 | 0.00 | 0.00 | 0.00 | 94 | 1015.2 |
| 20260905023218 | 75 | 323 | 0.0 | 0.0 | 0.00 | 0.00 | 0.00 | 94 | 1015.2 |
| 20260905022717 | 75 | 323 | 0.0 | 0.0 | 0.00 | 0.00 | 0.00 | 94 | 1015.1 |